createdAt,value
2018-03-27T03:33:53.181Z,100708.56
2018-03-27T03:36:20.700Z,100702.33
2018-03-27T03:38:48.228Z,100703.53
2018-03-27T03:41:16.529Z,100698.25
2018-03-27T03:43:44.054Z,100696.20
2018-03-27T03:46:11.587Z,100693.58
2018-03-27T03:48:39.144Z,100689.81
2018-03-27T03:51:06.699Z,100695.86
2018-03-27T03:53:34.276Z,100694.06
2018-03-27T03:56:01.766Z,100691.52
2018-03-27T03:58:29.264Z,100687.28
2018-03-27T04:00:56.781Z,100688.17
2018-03-27T04:03:24.277Z,100691.52
2018-03-27T04:05:51.830Z,100689.06
2018-03-27T04:08:19.344Z,100685.23
2018-03-27T04:10:46.855Z,100684.52
2018-03-27T04:13:14.916Z,100691.65
2018-03-27T04:15:42.439Z,100687.03
2018-03-27T04:18:09.948Z,100688.66
2018-03-27T04:20:37.456Z,100691.96
2018-03-27T04:23:05.015Z,100687.39
2018-03-27T04:25:32.520Z,100687.75
2018-03-27T04:28:00.049Z,100691.47
2018-03-27T04:30:27.549Z,100691.52
2018-03-27T04:32:55.128Z,100686.03
2018-03-27T04:35:22.649Z,100686.51
2018-03-27T04:37:50.173Z,100688.47
2018-03-27T04:40:17.689Z,100682.12
2018-03-27T04:42:45.227Z,100689.73
2018-03-27T04:45:12.753Z,100690.64
2018-03-27T04:47:40.278Z,100689.38
2018-03-27T04:50:07.789Z,100688.53
2018-03-27T04:52:35.345Z,100691.34
2018-03-27T04:55:02.888Z,100689.73
2018-03-27T04:57:30.407Z,100691.91
2018-03-27T04:59:57.932Z,100691.42
2018-03-27T05:02:25.474Z,100688.17
2018-03-27T05:04:52.998Z,100685.11
2018-03-27T05:07:20.511Z,100688.90
2018-03-27T05:09:48.051Z,100696.91
2018-03-27T05:12:15.650Z,100699.45
2018-03-27T05:14:43.209Z,100698.54
2018-03-27T05:17:10.751Z,100695.55
2018-03-27T05:19:38.343Z,100693.44
2018-03-27T05:22:05.853Z,100694.05
2018-03-27T05:24:33.397Z,100698.23
2018-03-27T05:27:00.930Z,100709.19
2018-03-27T05:29:28.921Z,100700.75
2018-03-27T05:31:57.133Z,100705.91
2018-03-27T05:34:24.868Z,100699.78
2018-03-27T05:36:52.412Z,100703.94
2018-03-27T05:39:19.975Z,100693.93
2018-03-27T05:41:47.559Z,100692.36
2018-03-27T05:44:15.139Z,100700.09
2018-03-27T05:46:42.716Z,100698.37
2018-03-27T05:49:10.288Z,100691.84
2018-03-27T05:51:37.816Z,100691.11
2018-03-27T05:54:05.345Z,100693.46
2018-03-27T05:56:34.341Z,100689.02
2018-03-27T05:59:01.897Z,100693.95
2018-03-27T06:01:29.390Z,100684.65
2018-03-27T06:03:56.905Z,100680.11
2018-03-27T06:06:24.422Z,100679.48
2018-03-27T06:08:51.927Z,100683.23
2018-03-27T06:11:19.456Z,100680.14
2018-03-27T06:13:46.967Z,100680.13
2018-03-27T06:16:14.485Z,100680.87
2018-03-27T06:18:41.990Z,100677.64
2018-03-27T06:21:09.502Z,100677.80
2018-03-27T06:23:36.992Z,100683.11
2018-03-27T06:26:04.538Z,100684.01
2018-03-27T06:28:32.033Z,100680.48
2018-03-27T06:30:59.541Z,100687.10
2018-03-27T06:33:27.064Z,100674.72
2018-03-27T06:35:54.567Z,100679.86
2018-03-27T06:38:22.120Z,100675.78
2018-03-27T06:40:49.678Z,100676.80
2018-03-27T06:43:17.172Z,100676.78
2018-03-27T06:45:44.701Z,100678.39
2018-03-27T06:48:12.214Z,100680.14
2018-03-27T06:50:39.724Z,100677.59
2018-03-27T06:53:07.248Z,100679.66
2018-03-27T06:55:34.807Z,100677.78
2018-03-27T06:58:02.310Z,100673.88
2018-03-27T07:00:29.821Z,100679.27
2018-03-27T07:02:57.393Z,100681.16
2018-03-27T07:05:24.994Z,100676.55
2018-03-27T07:07:52.463Z,100672.73
2018-03-27T07:10:20.016Z,100676.94
2018-03-27T07:12:47.582Z,100672.24
2018-03-27T07:15:15.080Z,100678.12
2018-03-27T07:17:42.593Z,100668.05
2018-03-27T07:20:10.105Z,100664.02
2018-03-27T07:22:37.643Z,100661.52
2018-03-27T07:25:05.148Z,100660.87
2018-03-27T07:27:32.651Z,100662.95
2018-03-27T07:30:00.179Z,100667.14
2018-03-27T07:32:27.684Z,100663.25
2018-03-27T07:34:55.202Z,100669.45
2018-03-27T07:37:22.732Z,100667.41
2018-03-27T07:39:50.261Z,100663.16
2018-03-27T07:42:17.829Z,100657.67
2018-03-27T07:44:45.344Z,100668.28
2018-03-27T07:47:12.870Z,100662.34
2018-03-27T07:49:40.402Z,100660.95
2018-03-27T07:52:07.941Z,100660.80
2018-03-27T07:54:35.465Z,100658.02
2018-03-27T07:57:02.995Z,100664.02
2018-03-27T07:59:30.547Z,100652.72
2018-03-27T08:01:58.045Z,100648.84
2018-03-27T08:04:25.556Z,100650.80
2018-03-27T08:06:53.084Z,100655.91
2018-03-27T08:09:20.615Z,100652.38
2018-03-27T08:11:48.136Z,100658.58
2018-03-27T08:14:15.674Z,100646.95
2018-03-27T08:16:43.215Z,100655.62
2018-03-27T08:19:10.750Z,100657.28
2018-03-27T08:21:38.263Z,100640.37
2018-03-27T08:24:05.879Z,100639.61
2018-03-27T08:26:33.329Z,100638.49
2018-03-27T08:29:00.872Z,100638.45
2018-03-27T08:31:28.443Z,100638.66
2018-03-27T08:33:55.952Z,100628.59
2018-03-27T08:36:23.573Z,100623.67
2018-03-27T08:38:51.040Z,100625.84
2018-03-27T08:41:18.595Z,100629.07
2018-03-27T08:43:46.129Z,100624.59
2018-03-27T08:46:13.651Z,100619.61
2018-03-27T08:48:41.167Z,100619.19
2018-03-27T08:51:08.693Z,100620.91
2018-03-27T08:53:36.209Z,100623.17
2018-03-27T08:56:03.861Z,100620.14
2018-03-27T08:58:31.354Z,100624.42
2018-03-27T09:00:58.898Z,100612.79
2018-03-27T09:03:26.531Z,100615.59
2018-03-27T09:05:54.096Z,100622.49
2018-03-27T09:08:21.588Z,100621.80
2018-03-27T09:10:49.147Z,100615.95
2018-03-27T09:13:16.713Z,100615.12
2018-03-27T09:15:44.251Z,100609.87
2018-03-27T09:18:11.787Z,100605.12
2018-03-27T09:20:39.323Z,100601.15
2018-03-27T09:23:06.866Z,100612.42
2018-03-27T09:25:34.396Z,100599.53
2018-03-27T09:28:01.923Z,100601.39
2018-03-27T09:30:29.499Z,100597.58
2018-03-27T09:32:56.993Z,100602.64
2018-03-27T09:35:24.538Z,100590.73
2018-03-27T09:37:52.057Z,100588.64
2018-03-27T09:40:19.645Z,100582.73
2018-03-27T09:42:47.129Z,100584.38
2018-03-27T09:45:14.650Z,100579.23
2018-03-27T09:47:42.154Z,100577.07
2018-03-27T09:50:09.681Z,100574.30
2018-03-27T09:52:37.234Z,100573.90
2018-03-27T09:55:04.773Z,100574.32
2018-03-27T09:57:32.287Z,100573.61
2018-03-27T09:59:59.816Z,100577.78
2018-03-27T10:02:27.334Z,100572.67
2018-03-27T10:04:54.845Z,100566.08
2018-03-27T10:07:22.370Z,100565.33
2018-03-27T10:09:49.909Z,100562.66
2018-03-27T10:12:17.413Z,100560.44
2018-03-27T10:14:45.029Z,100564.66
2018-03-27T10:17:12.557Z,100556.32
2018-03-27T10:19:40.119Z,100553.84
2018-03-27T10:22:07.669Z,100562.50
2018-03-27T10:24:35.185Z,100551.13
2018-03-27T10:27:02.682Z,100548.53
2018-03-27T10:29:30.208Z,100541.89
2018-03-27T10:31:57.749Z,100535.03
2018-03-27T10:34:25.281Z,100544.66
2018-03-27T10:36:52.788Z,100541.63
2018-03-27T10:39:20.329Z,100530.78
2018-03-27T10:41:47.836Z,100534.48
2018-03-27T10:44:15.354Z,100530.70
2018-03-27T10:46:42.882Z,100525.67
2018-03-27T10:49:10.412Z,100533.25
2018-03-27T10:51:37.959Z,100528.43
2018-03-27T10:54:05.465Z,100530.80
2018-03-27T10:56:32.967Z,100520.73
2018-03-27T10:59:00.547Z,100520.89
2018-03-27T11:01:28.073Z,100512.24
2018-03-27T11:03:55.619Z,100512.69
2018-03-27T11:06:23.137Z,100520.09
2018-03-27T11:08:50.649Z,100514.67
2018-03-27T11:11:18.148Z,100509.81
2018-03-27T11:13:45.664Z,100506.91
2018-03-27T11:16:13.187Z,100499.45
2018-03-27T11:18:40.754Z,100503.46
2018-03-27T11:21:08.281Z,100507.13
2018-03-27T11:23:35.923Z,100493.23
2018-03-27T11:26:03.560Z,100494.20
2018-03-27T11:28:31.084Z,100483.19
2018-03-27T11:30:58.585Z,100487.17
2018-03-27T11:33:26.081Z,100494.17
2018-03-27T11:35:53.605Z,100484.95
2018-03-27T11:38:21.139Z,100477.84
2018-03-27T11:40:48.657Z,100476.92
2018-03-27T11:43:16.174Z,100473.00
2018-03-27T11:45:43.685Z,100466.02
2018-03-27T11:48:11.193Z,100466.42
2018-03-27T11:50:38.752Z,100469.44
2018-03-27T11:53:06.348Z,100462.84
2018-03-27T11:55:33.842Z,100464.05
2018-03-27T11:58:01.389Z,100460.11
2018-03-27T12:00:28.876Z,100449.36
2018-03-27T12:02:56.413Z,100448.08
2018-03-27T12:05:23.931Z,100439.88
2018-03-27T12:07:51.474Z,100447.66
2018-03-27T12:10:19.041Z,100444.23
2018-03-27T12:12:46.557Z,100444.84
2018-03-27T12:15:14.101Z,100441.59
2018-03-27T12:17:41.604Z,100435.44
2018-03-27T12:20:09.131Z,100428.22
2018-03-27T12:22:36.663Z,100425.77
2018-03-27T12:25:04.174Z,100427.93
2018-03-27T12:27:31.711Z,100418.77
2018-03-27T12:29:59.221Z,100419.05
2018-03-27T12:32:26.750Z,100418.70
2018-03-27T12:34:54.253Z,100408.77
2018-03-27T12:37:21.794Z,100405.84
2018-03-27T12:39:49.383Z,100395.06
2018-03-27T12:42:16.964Z,100395.80
2018-03-27T12:44:44.493Z,100384.09
2018-03-27T12:47:12.105Z,100392.72
2018-03-27T12:49:39.671Z,100390.63
2018-03-27T12:52:07.165Z,100373.37
2018-03-27T12:54:34.676Z,100373.78
2018-03-27T12:57:02.212Z,100365.30
2018-03-27T12:59:29.759Z,100353.70
2018-03-27T13:01:57.291Z,100351.81
2018-03-27T13:04:24.809Z,100345.66
2018-03-27T13:06:52.321Z,100344.42
2018-03-27T13:09:19.866Z,100327.89
2018-03-27T13:11:47.394Z,100318.84
2018-03-27T13:14:14.948Z,100331.28
2018-03-27T13:16:42.497Z,100322.45
2018-03-27T13:19:10.213Z,100317.52
2018-03-27T13:21:37.767Z,100319.97
2018-03-27T13:24:05.296Z,100311.58
2018-03-27T13:26:32.859Z,100309.64
2018-03-27T13:29:00.360Z,100310.19
2018-03-27T13:31:27.899Z,100304.64
2018-03-27T13:33:55.432Z,100301.63
2018-03-27T13:36:22.960Z,100299.92
2018-03-27T13:38:50.536Z,100282.25
2018-03-27T13:41:18.072Z,100288.77
2018-03-27T13:43:45.610Z,100286.89
2018-03-27T13:46:13.168Z,100284.14
2018-03-27T13:48:40.687Z,100282.87
2018-03-27T13:51:08.188Z,100285.36
2018-03-27T13:53:35.720Z,100280.75
2018-03-27T13:56:03.237Z,100290.53
2018-03-27T13:58:30.762Z,100277.74
2018-03-27T14:00:58.342Z,100269.92
2018-03-27T14:03:25.868Z,100265.33
2018-03-27T14:05:53.398Z,100266.39
2018-03-27T14:08:20.897Z,100266.27
2018-03-27T14:10:50.183Z,100269.48
2018-03-27T14:13:17.787Z,100277.63
2018-03-27T14:15:45.315Z,100270.59
2018-03-27T14:18:12.825Z,100264.37
2018-03-27T14:20:43.765Z,100257.71
2018-03-27T14:23:11.291Z,100266.28
2018-03-27T14:25:38.818Z,100251.66
2018-03-27T14:28:06.373Z,100255.04
2018-03-27T14:30:33.975Z,100245.06
2018-03-27T14:33:01.479Z,100239.34
2018-03-27T14:35:28.997Z,100244.22
2018-03-27T14:37:56.813Z,100237.74
2018-03-27T14:40:24.353Z,100244.80
2018-03-27T14:42:51.903Z,100236.77
2018-03-27T14:45:19.464Z,100236.51
2018-03-27T14:47:46.985Z,100246.72
2018-03-27T14:50:14.958Z,100236.18
2018-03-27T14:52:42.488Z,100236.51
2018-03-27T14:55:09.986Z,100231.73
2018-03-27T14:57:37.518Z,100223.21
2018-03-27T15:00:05.040Z,100210.80
2018-03-27T15:02:32.530Z,100204.22
2018-03-27T15:05:00.021Z,100205.11
2018-03-27T15:07:27.553Z,100205.69
2018-03-27T15:09:55.101Z,100210.37
2018-03-27T15:12:22.649Z,100196.14
2018-03-27T15:14:50.200Z,100196.89
2018-03-27T15:17:17.816Z,100195.31
2018-03-27T15:19:45.368Z,100190.54
2018-03-27T15:22:12.889Z,100186.67
2018-03-27T15:24:40.432Z,100190.04
2018-03-27T15:27:07.930Z,100182.77
2018-03-27T15:29:35.468Z,100179.63
2018-03-27T15:32:03.118Z,100174.80
2018-03-27T15:34:30.667Z,100171.67
2018-03-27T15:36:58.219Z,100176.61
2018-03-27T15:39:25.741Z,100178.39
2018-03-27T15:41:53.278Z,100174.39
2018-03-27T15:44:20.777Z,100172.94
2018-03-27T15:46:48.350Z,100166.66
2018-03-27T15:49:15.883Z,100168.66
2018-03-27T15:51:43.441Z,100161.45
2018-03-27T15:54:10.968Z,100161.83
2018-03-27T15:56:38.507Z,100157.94
2018-03-27T15:59:06.135Z,100149.88
2018-03-27T16:01:33.685Z,100151.52
2018-03-27T16:04:01.233Z,100146.13
2018-03-27T16:06:28.786Z,100147.73
2018-03-27T16:08:56.305Z,100141.94
2018-03-27T16:11:23.819Z,100140.66
2018-03-27T16:13:51.364Z,100134.69
2018-03-27T16:16:19.746Z,100131.34
2018-03-27T16:18:53.257Z,100124.63
2018-03-27T16:21:20.797Z,100125.80
2018-03-27T16:23:48.349Z,100125.58
2018-03-27T16:26:15.853Z,100120.46
2018-03-27T16:28:43.388Z,100116.22
2018-03-27T16:31:10.904Z,100109.02
2018-03-27T16:33:38.413Z,100103.18
2018-03-27T16:36:05.954Z,100108.23
2018-03-27T16:38:33.500Z,100110.91
2018-03-27T16:41:01.041Z,100096.47
2018-03-27T16:43:28.531Z,100094.30
2018-03-27T16:45:56.058Z,100097.48
2018-03-27T16:48:23.581Z,100100.30
2018-03-27T16:50:51.109Z,100097.41
2018-03-27T16:53:18.646Z,100097.49
2018-03-27T16:55:46.183Z,100098.86
2018-03-27T16:58:13.731Z,100100.16
2018-03-27T17:00:41.276Z,100098.41
2018-03-27T17:03:08.827Z,100096.73
2018-03-27T17:05:36.372Z,100094.67
2018-03-27T17:08:03.947Z,100089.97
2018-03-27T17:10:31.493Z,100086.23
2018-03-27T17:12:58.997Z,100085.80
2018-03-27T17:15:26.516Z,100083.25
2018-03-27T17:17:54.107Z,100081.20
2018-03-27T17:20:23.386Z,100081.67
2018-03-27T17:22:51.575Z,100079.03
2018-03-27T17:25:19.085Z,100077.09
2018-03-27T17:27:46.625Z,100072.50
2018-03-27T17:30:14.167Z,100079.34
2018-03-27T17:32:41.683Z,100077.75
2018-03-27T17:35:09.181Z,100076.42
2018-03-27T17:37:36.712Z,100071.37
2018-03-27T17:40:04.269Z,100081.16
2018-03-27T17:42:31.842Z,100073.96
2018-03-27T17:44:59.468Z,100074.82
2018-03-27T17:47:27.006Z,100074.97
2018-03-27T17:49:56.711Z,100067.81
2018-03-27T17:52:24.241Z,100070.36
2018-03-27T17:54:51.824Z,100062.67
2018-03-27T17:57:19.381Z,100064.45
2018-03-27T17:59:47.162Z,100071.30
2018-03-27T18:02:14.877Z,100060.69
2018-03-27T18:04:43.301Z,100060.70
2018-03-27T18:07:10.972Z,100058.58
2018-03-27T18:09:41.977Z,100058.28
2018-03-27T18:12:09.550Z,100062.89
2018-03-27T18:14:38.240Z,100063.77
2018-03-27T18:17:05.847Z,100070.20
2018-03-27T18:19:34.882Z,100061.27
2018-03-27T18:22:06.640Z,100063.33
2018-03-27T18:24:34.181Z,100059.52
2018-03-27T18:27:01.713Z,100065.48
2018-03-27T18:29:29.620Z,100054.08
2018-03-27T18:31:58.922Z,100053.67
2018-03-27T18:34:26.798Z,100051.13
2018-03-27T18:36:54.373Z,100058.38
2018-03-27T18:39:23.821Z,100056.69
2018-03-27T18:41:53.838Z,100046.09
2018-03-27T18:44:22.304Z,100039.70
2018-03-27T18:46:52.444Z,100042.20
2018-03-27T18:49:20.033Z,100044.73
2018-03-27T18:51:47.594Z,100042.69
2018-03-27T18:54:15.149Z,100044.84
2018-03-27T18:56:42.675Z,100039.77
2018-03-27T18:59:10.184Z,100045.70
2018-03-27T19:01:37.728Z,100035.98
2018-03-27T19:04:05.243Z,100035.98
2018-03-27T19:06:32.802Z,100036.81
2018-03-27T19:09:00.340Z,100039.42
2018-03-27T19:11:27.869Z,100031.78
2018-03-27T19:13:55.405Z,100036.91
2018-03-27T19:16:22.928Z,100034.80
2018-03-27T19:18:50.451Z,100021.62
2018-03-27T19:21:17.979Z,100024.22
2018-03-27T19:23:45.481Z,100022.55
2018-03-27T19:26:13.012Z,100028.89
2018-03-27T19:28:40.696Z,100027.19
2018-03-27T19:31:09.151Z,100016.27
2018-03-27T19:33:36.958Z,100020.53
2018-03-27T19:36:04.506Z,100022.22
2018-03-27T19:38:32.852Z,100014.16
2018-03-27T19:41:00.381Z,100011.64
2018-03-27T19:43:27.977Z,100017.19
2018-03-27T19:45:55.516Z,100008.72
2018-03-27T19:48:23.067Z,100010.88
2018-03-27T19:50:50.603Z,100014.69
2018-03-27T19:53:18.126Z,100007.06
2018-03-27T19:55:45.655Z,100005.39
2018-03-27T19:58:13.192Z,100004.14
2018-03-27T20:00:40.704Z,100003.75
2018-03-27T20:03:08.244Z,100007.17
2018-03-27T20:08:38.125Z,100016.14
2018-03-27T20:11:05.631Z,100013.64
2018-03-27T20:13:33.139Z,100007.72
2018-03-27T20:16:00.775Z,100012.81
2018-03-27T20:18:28.264Z,100009.48
2018-03-27T20:20:55.753Z,100012.47
2018-03-27T20:23:23.276Z,100022.27
2018-03-27T20:25:50.760Z,100019.73
2018-03-27T20:28:18.273Z,100013.41
2018-03-27T20:30:45.749Z,100004.08
2018-03-27T20:33:13.966Z,100012.17
2018-03-27T20:35:41.473Z,100002.87
2018-03-27T20:38:09.001Z,99998.70
2018-03-27T20:40:36.456Z,100008.91
2018-03-27T20:43:03.961Z,100007.64
2018-03-27T20:45:31.462Z,100001.29
2018-03-27T20:47:58.976Z,100004.74
2018-03-27T20:50:26.496Z,100000.17
2018-03-27T20:52:54.039Z,99999.34
2018-03-27T20:55:21.554Z,99996.36
2018-03-27T20:57:49.081Z,99989.20
2018-03-27T21:00:16.574Z,99982.50
2018-03-27T21:02:44.076Z,99982.09
2018-03-27T21:05:11.561Z,99985.97
2018-03-27T21:07:39.086Z,99977.05
2018-03-27T21:10:06.585Z,99978.80
2018-03-27T21:12:36.762Z,99974.57
2018-03-27T21:15:04.409Z,99979.70
2018-03-27T21:17:31.950Z,99985.24
2018-03-27T21:19:59.413Z,99972.58
2018-03-27T21:22:26.943Z,99970.02
2018-03-27T21:24:54.498Z,99974.25
2018-03-27T21:27:21.977Z,99962.86
2018-03-27T21:29:49.493Z,99971.78
2018-03-27T21:32:16.986Z,99968.42
2018-03-27T21:34:44.542Z,99961.23
2018-03-27T21:37:12.498Z,99966.34
2018-03-27T21:39:40.045Z,99970.22
2018-03-27T21:42:07.537Z,99962.63
2018-03-27T21:44:35.045Z,99958.45
2018-03-27T21:47:02.554Z,99962.59
2018-03-27T21:49:30.136Z,99949.55
2018-03-27T21:51:57.708Z,99953.78
2018-03-27T21:54:25.200Z,99952.57
2018-03-27T21:56:52.687Z,99956.44
2018-03-27T21:59:21.935Z,99949.25
2018-03-27T22:01:49.433Z,99942.86
2018-03-27T22:04:16.924Z,99942.48
2018-03-27T22:06:44.453Z,99939.55
2018-03-27T22:09:11.922Z,99942.94
2018-03-27T22:11:39.524Z,99936.57
2018-03-27T22:14:08.093Z,99931.08
2018-03-27T22:16:35.971Z,99928.98
2018-03-27T22:19:03.810Z,99923.48
2018-03-27T22:21:31.378Z,99921.83
2018-03-27T22:23:58.893Z,99915.05
2018-03-27T22:26:26.399Z,99916.73
2018-03-27T22:28:53.891Z,99906.58
2018-03-27T22:31:21.424Z,99908.27
2018-03-27T22:33:49.250Z,99906.16
2018-03-27T22:36:16.876Z,99906.60
2018-03-27T22:38:44.397Z,99895.19
2018-03-27T22:41:11.915Z,99898.59
2018-03-27T22:43:39.447Z,99888.45
2018-03-27T22:46:06.930Z,99877.85
2018-03-27T22:48:34.450Z,99880.39
2018-03-27T22:51:02.017Z,99876.20
2018-03-27T22:53:29.542Z,99868.60
2018-03-27T22:55:57.046Z,99874.08
2018-03-27T22:58:25.635Z,99867.33
2018-03-27T23:00:53.233Z,99859.31
2018-03-27T23:03:20.758Z,99857.20
2018-03-27T23:05:48.300Z,99861.44
2018-03-27T23:08:15.784Z,99856.78
2018-03-27T23:10:43.336Z,99858.89
2018-03-27T23:13:10.827Z,99853.41
2018-03-27T23:15:38.343Z,99849.18
2018-03-27T23:18:05.848Z,99848.31
2018-03-27T23:20:33.322Z,99840.29
2018-03-27T23:23:00.834Z,99841.17
2018-03-27T23:25:28.342Z,99840.72
2018-03-27T23:27:55.883Z,99839.91
2018-03-27T23:30:23.420Z,99834.39
2018-03-27T23:32:50.942Z,99835.23
2018-03-27T23:35:18.405Z,99829.31
2018-03-27T23:37:45.900Z,99824.69
2018-03-27T23:40:13.537Z,99821.73
2018-03-27T23:42:41.072Z,99825.13
2018-03-27T23:45:08.577Z,99812.88
2018-03-27T23:47:36.088Z,99824.31
2018-03-27T23:50:03.559Z,99823.91
2018-03-27T23:52:31.060Z,99812.91
2018-03-27T23:54:58.561Z,99810.84
2018-03-27T23:57:26.390Z,99805.75
2018-03-27T23:59:53.888Z,99804.50
